Terminal Aerodrome Forecast
Issued by NWS

Home | Current Version | Previous Version | Text Only | Print | Product List | Glossary On
Versions: 1 2 3 4 5 6 7 8 9 10 11 12 13 14 15 16
000
FTUS45 KRIW 221100
TAFCPR
TAF
KCPR 221123Z 2212/2312 VRB05KT P6SM SKC
     FM221500 13007KT P6SM FEW150
     FM221900 20008KT P6SM SCT110
     FM230200 10011KT P6SM FEW120
     FM230900 VRB05KT P6SM SKC=

USA.gov is the U.S. government's official web portal to all federal, state and local government web resources and services.